sensor_id;sensor_type;location;lat;lon;timestamp;temperature;humidity
74657;DHT22;63185;45.642;13.764;2024-02-21T00:00:56;14.60;52.10
74657;DHT22;63185;45.642;13.764;2024-02-21T00:03:21;14.60;52.60
74657;DHT22;63185;45.642;13.764;2024-02-21T00:05:48;14.50;53.00
74657;DHT22;63185;45.642;13.764;2024-02-21T00:08:13;14.40;53.60
74657;DHT22;63185;45.642;13.764;2024-02-21T00:10:39;14.40;53.80
74657;DHT22;63185;45.642;13.764;2024-02-21T00:13:05;14.40;53.60
74657;DHT22;63185;45.642;13.764;2024-02-21T00:15:31;14.40;53.00
74657;DHT22;63185;45.642;13.764;2024-02-21T00:17:56;14.40;52.90
74657;DHT22;63185;45.642;13.764;2024-02-21T00:20:22;14.40;53.20
74657;DHT22;63185;45.642;13.764;2024-02-21T00:22:48;14.40;53.40
74657;DHT22;63185;45.642;13.764;2024-02-21T00:25:13;14.40;53.70
74657;DHT22;63185;45.642;13.764;2024-02-21T00:27:39;14.30;54.00
74657;DHT22;63185;45.642;13.764;2024-02-21T00:30:05;14.30;54.30
74657;DHT22;63185;45.642;13.764;2024-02-21T00:32:31;14.20;54.30
74657;DHT22;63185;45.642;13.764;2024-02-21T00:35:00;14.10;54.60
74657;DHT22;63185;45.642;13.764;2024-02-21T00:37:27;14.10;54.10
74657;DHT22;63185;45.642;13.764;2024-02-21T00:39:54;14.10;54.60
74657;DHT22;63185;45.642;13.764;2024-02-21T00:42:19;14.00;54.50
74657;DHT22;63185;45.642;13.764;2024-02-21T00:44:45;14.00;54.70
74657;DHT22;63185;45.642;13.764;2024-02-21T00:47:11;13.90;54.60
74657;DHT22;63185;45.642;13.764;2024-02-21T00:49:36;13.80;54.40
74657;DHT22;63185;45.642;13.764;2024-02-21T00:52:02;13.80;54.30
74657;DHT22;63185;45.642;13.764;2024-02-21T00:54:28;13.70;55.00
74657;DHT22;63185;45.642;13.764;2024-02-21T00:56:53;13.60;55.40
74657;DHT22;63185;45.642;13.764;2024-02-21T00:59:19;13.60;55.70
74657;DHT22;63185;45.642;13.764;2024-02-21T01:01:45;13.50;55.70
74657;DHT22;63185;45.642;13.764;2024-02-21T01:04:10;13.50;55.70
74657;DHT22;63185;45.642;13.764;2024-02-21T01:06:36;13.40;55.60
74657;DHT22;63185;45.642;13.764;2024-02-21T01:09:02;13.40;55.70
74657;DHT22;63185;45.642;13.764;2024-02-21T01:11:27;13.30;55.90
74657;DHT22;63185;45.642;13.764;2024-02-21T01:13:54;13.40;55.60
74657;DHT22;63185;45.642;13.764;2024-02-21T01:16:20;13.30;55.90
74657;DHT22;63185;45.642;13.764;2024-02-21T01:18:46;13.30;55.90
74657;DHT22;63185;45.642;13.764;2024-02-21T01:21:12;13.30;55.90
74657;DHT22;63185;45.642;13.764;2024-02-21T01:23:37;13.30;55.40
74657;DHT22;63185;45.642;13.764;2024-02-21T01:26:03;13.30;55.30
74657;DHT22;63185;45.642;13.764;2024-02-21T01:28:29;13.30;55.40
74657;DHT22;63185;45.642;13.764;2024-02-21T01:30:56;13.30;55.70
74657;DHT22;63185;45.642;13.764;2024-02-21T01:33:22;13.40;54.80
74657;DHT22;63185;45.642;13.764;2024-02-21T01:35:48;13.40;55.10
74657;DHT22;63185;45.642;13.764;2024-02-21T01:38:15;13.40;55.50
74657;DHT22;63185;45.642;13.764;2024-02-21T01:40:41;13.30;55.30
74657;DHT22;63185;45.642;13.764;2024-02-21T01:43:20;13.30;55.00
74657;DHT22;63185;45.642;13.764;2024-02-21T01:45:50;13.20;55.10
74657;DHT22;63185;45.642;13.764;2024-02-21T01:48:24;13.30;55.10
74657;DHT22;63185;45.642;13.764;2024-02-21T01:50:50;13.20;55.50
74657;DHT22;63185;45.642;13.764;2024-02-21T01:53:35;13.20;56.20
74657;DHT22;63185;45.642;13.764;2024-02-21T01:56:02;13.20;56.20
74657;DHT22;63185;45.642;13.764;2024-02-21T01:58:29;13.10;57.00
74657;DHT22;63185;45.642;13.764;2024-02-21T02:00:56;13.00;57.00
74657;DHT22;63185;45.642;13.764;2024-02-21T02:03:23;12.90;56.90
74657;DHT22;63185;45.642;13.764;2024-02-21T02:05:51;12.90;56.80
74657;DHT22;63185;45.642;13.764;2024-02-21T02:08:18;12.90;57.30
74657;DHT22;63185;45.642;13.764;2024-02-21T02:10:45;12.90;57.00
74657;DHT22;63185;45.642;13.764;2024-02-21T02:13:11;12.90;56.80
74657;DHT22;63185;45.642;13.764;2024-02-21T02:15:41;12.80;57.00
74657;DHT22;63185;45.642;13.764;2024-02-21T02:18:07;12.80;56.80
74657;DHT22;63185;45.642;13.764;2024-02-21T02:20:35;12.80;56.70
74657;DHT22;63185;45.642;13.764;2024-02-21T02:23:09;12.70;56.60
74657;DHT22;63185;45.642;13.764;2024-02-21T02:25:36;12.70;56.40
74657;DHT22;63185;45.642;13.764;2024-02-21T02:28:03;12.80;56.00
74657;DHT22;63185;45.642;13.764;2024-02-21T02:30:35;12.70;55.90
74657;DHT22;63185;45.642;13.764;2024-02-21T02:33:02;12.80;55.50
74657;DHT22;63185;45.642;13.764;2024-02-21T02:35:28;12.70;55.40
74657;DHT22;63185;45.642;13.764;2024-02-21T02:37:54;12.80;55.00
74657;DHT22;63185;45.642;13.764;2024-02-21T02:40:20;12.80;54.70
74657;DHT22;63185;45.642;13.764;2024-02-21T02:42:46;12.80;54.70
74657;DHT22;63185;45.642;13.764;2024-02-21T02:45:12;12.80;53.90
74657;DHT22;63185;45.642;13.764;2024-02-21T02:47:39;12.80;54.30
74657;DHT22;63185;45.642;13.764;2024-02-21T02:50:06;12.80;54.30
74657;DHT22;63185;45.642;13.764;2024-02-21T02:52:32;12.80;53.40
74657;DHT22;63185;45.642;13.764;2024-02-21T02:54:58;12.80;53.60
74657;DHT22;63185;45.642;13.764;2024-02-21T02:57:23;12.80;54.00
74657;DHT22;63185;45.642;13.764;2024-02-21T02:59:52;12.80;53.60
74657;DHT22;63185;45.642;13.764;2024-02-21T03:02:18;12.80;53.30
74657;DHT22;63185;45.642;13.764;2024-02-21T03:04:44;12.80;53.10
74657;DHT22;63185;45.642;13.764;2024-02-21T03:07:10;12.90;52.90
74657;DHT22;63185;45.642;13.764;2024-02-21T03:09:39;12.90;53.10
74657;DHT22;63185;45.642;13.764;2024-02-21T03:12:06;12.90;53.30
74657;DHT22;63185;45.642;13.764;2024-02-21T03:14:32;12.90;53.10
74657;DHT22;63185;45.642;13.764;2024-02-21T03:16:58;13.00;53.30
74657;DHT22;63185;45.642;13.764;2024-02-21T03:19:25;13.00;53.20
74657;DHT22;63185;45.642;13.764;2024-02-21T03:21:51;13.00;53.30
74657;DHT22;63185;45.642;13.764;2024-02-21T03:24:18;13.00;53.50
74657;DHT22;63185;45.642;13.764;2024-02-21T03:26:43;13.10;53.40
74657;DHT22;63185;45.642;13.764;2024-02-21T03:29:10;13.00;53.30
74657;DHT22;63185;45.642;13.764;2024-02-21T03:31:37;13.00;53.20
74657;DHT22;63185;45.642;13.764;2024-02-21T03:34:02;13.00;53.20
74657;DHT22;63185;45.642;13.764;2024-02-21T03:36:29;13.00;53.20
74657;DHT22;63185;45.642;13.764;2024-02-21T03:38:55;13.00;53.30
74657;DHT22;63185;45.642;13.764;2024-02-21T03:41:21;13.00;53.40
74657;DHT22;63185;45.642;13.764;2024-02-21T03:43:47;12.90;53.30
74657;DHT22;63185;45.642;13.764;2024-02-21T03:46:12;12.90;53.30
74657;DHT22;63185;45.642;13.764;2024-02-21T03:48:38;12.90;53.60
74657;DHT22;63185;45.642;13.764;2024-02-21T03:51:04;12.90;53.80
74657;DHT22;63185;45.642;13.764;2024-02-21T03:53:30;12.80;53.80
74657;DHT22;63185;45.642;13.764;2024-02-21T03:55:56;12.70;54.40
74657;DHT22;63185;45.642;13.764;2024-02-21T03:58:22;12.60;54.60
74657;DHT22;63185;45.642;13.764;2024-02-21T04:00:48;12.60;55.20
74657;DHT22;63185;45.642;13.764;2024-02-21T04:03:13;12.60;55.50
74657;DHT22;63185;45.642;13.764;2024-02-21T04:05:39;12.50;55.70
74657;DHT22;63185;45.642;13.764;2024-02-21T04:08:05;12.50;55.60
74657;DHT22;63185;45.642;13.764;2024-02-21T04:10:31;12.50;55.60
74657;DHT22;63185;45.642;13.764;2024-02-21T04:12:56;12.40;55.70
74657;DHT22;63185;45.642;13.764;2024-02-21T04:15:22;12.40;55.50
74657;DHT22;63185;45.642;13.764;2024-02-21T04:17:48;12.40;55.50
74657;DHT22;63185;45.642;13.764;2024-02-21T04:20:15;12.40;55.40
74657;DHT22;63185;45.642;13.764;2024-02-21T04:22:44;12.40;55.30
74657;DHT22;63185;45.642;13.764;2024-02-21T04:25:10;12.40;55.00
74657;DHT22;63185;45.642;13.764;2024-02-21T04:27:37;12.40;54.80
74657;DHT22;63185;45.642;13.764;2024-02-21T04:30:04;12.40;55.00
74657;DHT22;63185;45.642;13.764;2024-02-21T04:32:29;12.40;54.90
74657;DHT22;63185;45.642;13.764;2024-02-21T04:34:56;12.40;55.20
74657;DHT22;63185;45.642;13.764;2024-02-21T04:37:22;12.40;55.30
74657;DHT22;63185;45.642;13.764;2024-02-21T04:39:50;12.40;55.30
74657;DHT22;63185;45.642;13.764;2024-02-21T04:42:16;12.30;55.30
74657;DHT22;63185;45.642;13.764;2024-02-21T04:44:42;12.40;55.60
74657;DHT22;63185;45.642;13.764;2024-02-21T04:47:08;12.40;55.40
74657;DHT22;63185;45.642;13.764;2024-02-21T04:49:34;12.30;55.30
74657;DHT22;63185;45.642;13.764;2024-02-21T04:52:00;12.30;55.20
74657;DHT22;63185;45.642;13.764;2024-02-21T04:54:26;12.30;55.30
74657;DHT22;63185;45.642;13.764;2024-02-21T04:56:52;12.30;55.40
74657;DHT22;63185;45.642;13.764;2024-02-21T04:59:17;12.20;55.30
74657;DHT22;63185;45.642;13.764;2024-02-21T05:01:43;12.20;55.50
74657;DHT22;63185;45.642;13.764;2024-02-21T05:04:09;12.20;55.70
74657;DHT22;63185;45.642;13.764;2024-02-21T05:06:39;12.20;55.90
74657;DHT22;63185;45.642;13.764;2024-02-21T05:09:05;12.20;55.90
74657;DHT22;63185;45.642;13.764;2024-02-21T05:11:31;12.20;56.50
74657;DHT22;63185;45.642;13.764;2024-02-21T05:13:56;12.10;56.60
74657;DHT22;63185;45.642;13.764;2024-02-21T05:16:22;12.10;56.80
74657;DHT22;63185;45.642;13.764;2024-02-21T05:18:48;12.10;56.60
74657;DHT22;63185;45.642;13.764;2024-02-21T05:21:14;12.10;56.60
74657;DHT22;63185;45.642;13.764;2024-02-21T05:23:39;12.00;56.60
74657;DHT22;63185;45.642;13.764;2024-02-21T05:26:06;12.10;56.60
74657;DHT22;63185;45.642;13.764;2024-02-21T05:28:32;12.10;56.50
74657;DHT22;63185;45.642;13.764;2024-02-21T05:30:58;12.10;56.40
74657;DHT22;63185;45.642;13.764;2024-02-21T05:33:24;12.00;56.50
74657;DHT22;63185;45.642;13.764;2024-02-21T05:35:50;12.00;56.50
74657;DHT22;63185;45.642;13.764;2024-02-21T05:38:16;12.10;56.60
74657;DHT22;63185;45.642;13.764;2024-02-21T05:40:44;12.10;56.50
74657;DHT22;63185;45.642;13.764;2024-02-21T05:43:09;12.10;57.00
74657;DHT22;63185;45.642;13.764;2024-02-21T05:45:35;12.10;56.70
74657;DHT22;63185;45.642;13.764;2024-02-21T05:48:01;12.00;56.80
74657;DHT22;63185;45.642;13.764;2024-02-21T05:50:28;12.00;56.90
74657;DHT22;63185;45.642;13.764;2024-02-21T05:52:57;12.00;57.10
74657;DHT22;63185;45.642;13.764;2024-02-21T05:55:22;12.00;57.20
74657;DHT22;63185;45.642;13.764;2024-02-21T05:57:48;12.00;57.10
74657;DHT22;63185;45.642;13.764;2024-02-21T06:00:14;12.00;57.00
74657;DHT22;63185;45.642;13.764;2024-02-21T06:02:41;12.10;57.30
74657;DHT22;63185;45.642;13.764;2024-02-21T06:05:07;12.10;57.30
74657;DHT22;63185;45.642;13.764;2024-02-21T06:07:33;12.10;57.30
74657;DHT22;63185;45.642;13.764;2024-02-21T06:10:02;12.10;57.30
74657;DHT22;63185;45.642;13.764;2024-02-21T06:12:28;12.10;56.80
74657;DHT22;63185;45.642;13.764;2024-02-21T06:14:54;12.10;56.50
74657;DHT22;63185;45.642;13.764;2024-02-21T06:17:20;12.20;56.70
74657;DHT22;63185;45.642;13.764;2024-02-21T06:19:45;12.20;56.90
74657;DHT22;63185;45.642;13.764;2024-02-21T06:22:11;12.20;56.70
74657;DHT22;63185;45.642;13.764;2024-02-21T06:24:37;12.20;56.50
74657;DHT22;63185;45.642;13.764;2024-02-21T06:27:06;12.30;56.70
74657;DHT22;63185;45.642;13.764;2024-02-21T06:29:32;12.30;57.30
74657;DHT22;63185;45.642;13.764;2024-02-21T06:31:59;12.30;57.10
74657;DHT22;63185;45.642;13.764;2024-02-21T06:34:25;12.30;56.90
74657;DHT22;63185;45.642;13.764;2024-02-21T06:36:51;12.40;56.40
74657;DHT22;63185;45.642;13.764;2024-02-21T06:39:17;12.40;56.10
74657;DHT22;63185;45.642;13.764;2024-02-21T06:41:43;12.40;56.20
74657;DHT22;63185;45.642;13.764;2024-02-21T06:44:08;12.60;56.10
74657;DHT22;63185;45.642;13.764;2024-02-21T06:46:34;12.60;55.90
74657;DHT22;63185;45.642;13.764;2024-02-21T06:49:01;12.60;56.10
74657;DHT22;63185;45.642;13.764;2024-02-21T06:51:28;12.70;56.10
74657;DHT22;63185;45.642;13.764;2024-02-21T06:53:54;12.80;55.70
74657;DHT22;63185;45.642;13.764;2024-02-21T06:56:20;12.80;55.50
74657;DHT22;63185;45.642;13.764;2024-02-21T06:58:46;12.80;55.60
74657;DHT22;63185;45.642;13.764;2024-02-21T07:01:12;12.90;55.40
74657;DHT22;63185;45.642;13.764;2024-02-21T07:03:37;12.90;55.50
74657;DHT22;63185;45.642;13.764;2024-02-21T07:06:03;12.90;55.90
74657;DHT22;63185;45.642;13.764;2024-02-21T07:08:29;13.00;56.00
74657;DHT22;63185;45.642;13.764;2024-02-21T07:10:55;13.10;56.00
74657;DHT22;63185;45.642;13.764;2024-02-21T07:13:20;13.10;55.40
74657;DHT22;63185;45.642;13.764;2024-02-21T07:15:48;13.00;55.10
74657;DHT22;63185;45.642;13.764;2024-02-21T07:18:14;13.10;55.20
74657;DHT22;63185;45.642;13.764;2024-02-21T07:20:39;13.10;54.80
74657;DHT22;63185;45.642;13.764;2024-02-21T07:23:07;13.10;55.20
74657;DHT22;63185;45.642;13.764;2024-02-21T07:25:33;13.10;55.20
74657;DHT22;63185;45.642;13.764;2024-02-21T07:27:59;13.20;55.40
74657;DHT22;63185;45.642;13.764;2024-02-21T07:30:24;13.20;55.60
74657;DHT22;63185;45.642;13.764;2024-02-21T07:32:50;13.20;55.60
74657;DHT22;63185;45.642;13.764;2024-02-21T07:35:17;13.20;55.40
74657;DHT22;63185;45.642;13.764;2024-02-21T07:37:43;13.30;55.30
74657;DHT22;63185;45.642;13.764;2024-02-21T07:40:16;13.30;55.20
74657;DHT22;63185;45.642;13.764;2024-02-21T07:42:42;13.30;55.40
74657;DHT22;63185;45.642;13.764;2024-02-21T07:45:08;13.30;55.30
74657;DHT22;63185;45.642;13.764;2024-02-21T07:47:34;13.40;55.40
74657;DHT22;63185;45.642;13.764;2024-02-21T07:50:02;13.50;55.40
74657;DHT22;63185;45.642;13.764;2024-02-21T07:52:28;13.60;54.80
74657;DHT22;63185;45.642;13.764;2024-02-21T07:54:53;13.60;54.60
74657;DHT22;63185;45.642;13.764;2024-02-21T07:57:19;13.70;54.60
74657;DHT22;63185;45.642;13.764;2024-02-21T07:59:45;13.80;54.00
74657;DHT22;63185;45.642;13.764;2024-02-21T08:02:13;13.90;53.80
74657;DHT22;63185;45.642;13.764;2024-02-21T08:04:39;14.00;53.30
74657;DHT22;63185;45.642;13.764;2024-02-21T08:07:05;14.20;52.70
74657;DHT22;63185;45.642;13.764;2024-02-21T08:09:31;14.40;52.80
74657;DHT22;63185;45.642;13.764;2024-02-21T08:11:56;14.50;52.70
74657;DHT22;63185;45.642;13.764;2024-02-21T08:14:22;14.50;52.10
74657;DHT22;63185;45.642;13.764;2024-02-21T08:16:50;14.60;52.00
74657;DHT22;63185;45.642;13.764;2024-02-21T08:19:19;14.60;52.20
74657;DHT22;63185;45.642;13.764;2024-02-21T08:21:45;14.60;51.60
74657;DHT22;63185;45.642;13.764;2024-02-21T08:24:13;14.70;51.40
74657;DHT22;63185;45.642;13.764;2024-02-21T08:26:41;14.70;51.40
74657;DHT22;63185;45.642;13.764;2024-02-21T08:29:06;14.70;52.00
74657;DHT22;63185;45.642;13.764;2024-02-21T08:31:32;14.70;52.10
74657;DHT22;63185;45.642;13.764;2024-02-21T08:34:00;14.70;52.40
74657;DHT22;63185;45.642;13.764;2024-02-21T08:36:38;14.60;53.10
74657;DHT22;63185;45.642;13.764;2024-02-21T08:39:04;14.50;54.30
74657;DHT22;63185;45.642;13.764;2024-02-21T08:41:33;14.50;55.50
74657;DHT22;63185;45.642;13.764;2024-02-21T08:43:59;14.30;55.90
74657;DHT22;63185;45.642;13.764;2024-02-21T08:46:25;14.30;55.30
74657;DHT22;63185;45.642;13.764;2024-02-21T08:48:52;14.30;56.20
74657;DHT22;63185;45.642;13.764;2024-02-21T08:51:19;14.30;57.00
74657;DHT22;63185;45.642;13.764;2024-02-21T08:53:48;14.20;57.80
74657;DHT22;63185;45.642;13.764;2024-02-21T08:56:14;14.30;58.20
74657;DHT22;63185;45.642;13.764;2024-02-21T08:58:40;14.40;58.50
74657;DHT22;63185;45.642;13.764;2024-02-21T09:01:07;14.50;59.00
74657;DHT22;63185;45.642;13.764;2024-02-21T09:03:36;14.50;59.00
74657;DHT22;63185;45.642;13.764;2024-02-21T09:06:04;14.60;57.70
74657;DHT22;63185;45.642;13.764;2024-02-21T09:08:29;14.50;56.00
74657;DHT22;63185;45.642;13.764;2024-02-21T09:10:55;14.60;56.60
74657;DHT22;63185;45.642;13.764;2024-02-21T09:13:21;14.60;56.00
74657;DHT22;63185;45.642;13.764;2024-02-21T09:15:47;14.60;54.90
74657;DHT22;63185;45.642;13.764;2024-02-21T09:18:14;14.60;53.90
74657;DHT22;63185;45.642;13.764;2024-02-21T09:20:40;14.60;53.40
74657;DHT22;63185;45.642;13.764;2024-02-21T09:23:06;14.60;53.90
74657;DHT22;63185;45.642;13.764;2024-02-21T09:25:31;14.70;53.40
74657;DHT22;63185;45.642;13.764;2024-02-21T09:27:57;14.60;53.00
74657;DHT22;63185;45.642;13.764;2024-02-21T09:30:24;14.60;54.70
74657;DHT22;63185;45.642;13.764;2024-02-21T09:32:50;14.60;55.20
74657;DHT22;63185;45.642;13.764;2024-02-21T09:35:15;14.70;54.50
74657;DHT22;63185;45.642;13.764;2024-02-21T09:37:41;15.00;53.70
74657;DHT22;63185;45.642;13.764;2024-02-21T09:40:07;15.10;53.00
74657;DHT22;63185;45.642;13.764;2024-02-21T09:42:41;15.10;52.00
74657;DHT22;63185;45.642;13.764;2024-02-21T09:45:36;15.10;52.30
74657;DHT22;63185;45.642;13.764;2024-02-21T09:48:34;15.20;51.30
74657;DHT22;63185;45.642;13.764;2024-02-21T09:51:05;15.30;51.70
74657;DHT22;63185;45.642;13.764;2024-02-21T09:53:32;15.50;51.40
74657;DHT22;63185;45.642;13.764;2024-02-21T09:55:59;15.60;51.10
74657;DHT22;63185;45.642;13.764;2024-02-21T09:58:26;15.70;50.80
74657;DHT22;63185;45.642;13.764;2024-02-21T10:00:53;15.70;50.70
74657;DHT22;63185;45.642;13.764;2024-02-21T10:03:18;15.70;50.10
74657;DHT22;63185;45.642;13.764;2024-02-21T10:05:48;15.40;49.30
74657;DHT22;63185;45.642;13.764;2024-02-21T10:08:15;15.30;49.90
74657;DHT22;63185;45.642;13.764;2024-02-21T10:10:45;15.20;50.00
74657;DHT22;63185;45.642;13.764;2024-02-21T10:13:11;15.30;50.80
74657;DHT22;63185;45.642;13.764;2024-02-21T10:15:37;15.40;51.40
74657;DHT22;63185;45.642;13.764;2024-02-21T10:18:03;15.40;52.00
74657;DHT22;63185;45.642;13.764;2024-02-21T10:20:29;15.40;50.20
74657;DHT22;63185;45.642;13.764;2024-02-21T10:23:05;15.40;50.50
74657;DHT22;63185;45.642;13.764;2024-02-21T10:25:35;15.40;50.00
74657;DHT22;63185;45.642;13.764;2024-02-21T10:28:02;15.40;51.00
74657;DHT22;63185;45.642;13.764;2024-02-21T10:30:28;15.50;51.40
74657;DHT22;63185;45.642;13.764;2024-02-21T10:32:54;15.60;51.80
74657;DHT22;63185;45.642;13.764;2024-02-21T10:35:31;15.80;51.20
74657;DHT22;63185;45.642;13.764;2024-02-21T10:37:57;15.80;48.40
74657;DHT22;63185;45.642;13.764;2024-02-21T10:40:24;15.80;49.70
74657;DHT22;63185;45.642;13.764;2024-02-21T10:42:57;15.70;50.60
74657;DHT22;63185;45.642;13.764;2024-02-21T10:45:34;15.80;50.90
74657;DHT22;63185;45.642;13.764;2024-02-21T10:48:11;15.90;50.30
74657;DHT22;63185;45.642;13.764;2024-02-21T10:50:57;15.80;50.90
74657;DHT22;63185;45.642;13.764;2024-02-21T10:56:29;15.80;51.80
74657;DHT22;63185;45.642;13.764;2024-02-21T10:58:57;15.80;50.90
74657;DHT22;63185;45.642;13.764;2024-02-21T11:01:23;15.90;50.30
74657;DHT22;63185;45.642;13.764;2024-02-21T11:03:52;15.90;46.60
74657;DHT22;63185;45.642;13.764;2024-02-21T11:06:20;15.90;48.80
74657;DHT22;63185;45.642;13.764;2024-02-21T11:08:47;16.10;47.80
74657;DHT22;63185;45.642;13.764;2024-02-21T11:11:15;16.20;46.10
74657;DHT22;63185;45.642;13.764;2024-02-21T11:13:46;16.20;48.30
74657;DHT22;63185;45.642;13.764;2024-02-21T11:16:21;16.20;48.20
74657;DHT22;63185;45.642;13.764;2024-02-21T11:18:47;16.30;45.70
74657;DHT22;63185;45.642;13.764;2024-02-21T11:21:12;16.30;43.70
74657;DHT22;63185;45.642;13.764;2024-02-21T11:23:38;16.10;46.60
74657;DHT22;63185;45.642;13.764;2024-02-21T11:26:08;16.20;44.20
74657;DHT22;63185;45.642;13.764;2024-02-21T11:28:35;16.10;45.10
74657;DHT22;63185;45.642;13.764;2024-02-21T11:31:11;16.00;45.00
74657;DHT22;63185;45.642;13.764;2024-02-21T11:33:42;16.00;46.70
74657;DHT22;63185;45.642;13.764;2024-02-21T11:36:25;15.90;44.50
74657;DHT22;63185;45.642;13.764;2024-02-21T11:38:52;15.90;47.60
74657;DHT22;63185;45.642;13.764;2024-02-21T11:41:20;16.00;46.20
74657;DHT22;63185;45.642;13.764;2024-02-21T11:43:50;16.00;45.10
74657;DHT22;63185;45.642;13.764;2024-02-21T11:46:18;16.00;44.20
74657;DHT22;63185;45.642;13.764;2024-02-21T11:48:44;15.90;44.50
74657;DHT22;63185;45.642;13.764;2024-02-21T11:51:21;15.90;45.50
74657;DHT22;63185;45.642;13.764;2024-02-21T11:53:48;15.90;46.30
74657;DHT22;63185;45.642;13.764;2024-02-21T11:56:14;16.00;46.60
74657;DHT22;63185;45.642;13.764;2024-02-21T11:58:39;16.10;47.10
74657;DHT22;63185;45.642;13.764;2024-02-21T12:01:05;16.20;45.60
74657;DHT22;63185;45.642;13.764;2024-02-21T12:03:32;16.20;45.70
74657;DHT22;63185;45.642;13.764;2024-02-21T12:06:01;16.00;45.60
74657;DHT22;63185;45.642;13.764;2024-02-21T12:08:40;16.10;46.10
74657;DHT22;63185;45.642;13.764;2024-02-21T12:11:16;15.90;45.60
74657;DHT22;63185;45.642;13.764;2024-02-21T12:13:42;15.90;47.30
74657;DHT22;63185;45.642;13.764;2024-02-21T12:16:08;15.80;48.90
74657;DHT22;63185;45.642;13.764;2024-02-21T12:18:33;15.90;48.50
74657;DHT22;63185;45.642;13.764;2024-02-21T12:20:59;15.70;48.30
74657;DHT22;63185;45.642;13.764;2024-02-21T12:23:27;15.50;46.50
74657;DHT22;63185;45.642;13.764;2024-02-21T12:25:52;15.30;48.90
74657;DHT22;63185;45.642;13.764;2024-02-21T12:28:21;15.40;50.20
74657;DHT22;63185;45.642;13.764;2024-02-21T12:30:47;15.50;50.30
74657;DHT22;63185;45.642;13.764;2024-02-21T12:33:13;15.60;49.60
74657;DHT22;63185;45.642;13.764;2024-02-21T12:35:41;15.70;46.40
74657;DHT22;63185;45.642;13.764;2024-02-21T12:38:07;15.60;48.70
74657;DHT22;63185;45.642;13.764;2024-02-21T12:40:33;15.60;50.00
74657;DHT22;63185;45.642;13.764;2024-02-21T12:43:00;15.50;51.20
74657;DHT22;63185;45.642;13.764;2024-02-21T12:45:28;15.60;50.10
74657;DHT22;63185;45.642;13.764;2024-02-21T12:47:53;15.70;48.90
74657;DHT22;63185;45.642;13.764;2024-02-21T12:50:19;15.50;49.60
74657;DHT22;63185;45.642;13.764;2024-02-21T12:52:46;15.20;53.90
74657;DHT22;63185;45.642;13.764;2024-02-21T12:55:11;15.30;53.30
74657;DHT22;63185;45.642;13.764;2024-02-21T12:57:39;15.30;54.00
74657;DHT22;63185;45.642;13.764;2024-02-21T13:00:05;15.40;55.70
74657;DHT22;63185;45.642;13.764;2024-02-21T13:02:34;15.40;57.60
74657;DHT22;63185;45.642;13.764;2024-02-21T13:05:00;15.10;56.30
74657;DHT22;63185;45.642;13.764;2024-02-21T13:07:28;15.00;56.50
74657;DHT22;63185;45.642;13.764;2024-02-21T13:09:54;14.90;56.00
74657;DHT22;63185;45.642;13.764;2024-02-21T13:12:19;14.90;57.10
74657;DHT22;63185;45.642;13.764;2024-02-21T13:14:45;14.80;56.60
74657;DHT22;63185;45.642;13.764;2024-02-21T13:17:11;14.80;56.80
74657;DHT22;63185;45.642;13.764;2024-02-21T13:19:37;14.90;56.40
74657;DHT22;63185;45.642;13.764;2024-02-21T13:22:02;15.10;56.30
74657;DHT22;63185;45.642;13.764;2024-02-21T13:24:29;15.10;55.80
74657;DHT22;63185;45.642;13.764;2024-02-21T13:26:55;15.00;56.20
74657;DHT22;63185;45.642;13.764;2024-02-21T13:29:21;15.00;55.30
74657;DHT22;63185;45.642;13.764;2024-02-21T13:31:46;15.00;56.00
74657;DHT22;63185;45.642;13.764;2024-02-21T13:34:12;15.20;55.50
74657;DHT22;63185;45.642;13.764;2024-02-21T13:36:38;15.30;55.00
74657;DHT22;63185;45.642;13.764;2024-02-21T13:39:03;15.50;55.60
74657;DHT22;63185;45.642;13.764;2024-02-21T13:41:34;15.40;55.70
74657;DHT22;63185;45.642;13.764;2024-02-21T13:44:00;15.30;56.30
74657;DHT22;63185;45.642;13.764;2024-02-21T13:46:25;15.30;56.50
74657;DHT22;63185;45.642;13.764;2024-02-21T13:49:01;15.50;56.20
74657;DHT22;63185;45.642;13.764;2024-02-21T13:51:27;15.30;55.90
74657;DHT22;63185;45.642;13.764;2024-02-21T13:53:52;15.20;56.70
74657;DHT22;63185;45.642;13.764;2024-02-21T13:56:18;15.20;56.30
74657;DHT22;63185;45.642;13.764;2024-02-21T13:58:44;15.10;56.50
74657;DHT22;63185;45.642;13.764;2024-02-21T14:01:09;14.90;57.70
74657;DHT22;63185;45.642;13.764;2024-02-21T14:03:35;14.90;58.30
74657;DHT22;63185;45.642;13.764;2024-02-21T14:06:01;15.10;57.60
74657;DHT22;63185;45.642;13.764;2024-02-21T14:08:26;15.20;57.10
74657;DHT22;63185;45.642;13.764;2024-02-21T14:10:52;15.10;57.00
74657;DHT22;63185;45.642;13.764;2024-02-21T14:13:18;15.30;57.30
74657;DHT22;63185;45.642;13.764;2024-02-21T14:15:44;15.30;57.90
74657;DHT22;63185;45.642;13.764;2024-02-21T14:18:13;15.30;57.80
74657;DHT22;63185;45.642;13.764;2024-02-21T14:20:39;15.40;57.80
74657;DHT22;63185;45.642;13.764;2024-02-21T14:23:05;15.60;57.50
74657;DHT22;63185;45.642;13.764;2024-02-21T14:25:30;15.50;56.90
74657;DHT22;63185;45.642;13.764;2024-02-21T14:27:56;15.50;56.90
74657;DHT22;63185;45.642;13.764;2024-02-21T14:30:22;15.60;57.70
74657;DHT22;63185;45.642;13.764;2024-02-21T14:32:47;15.80;58.10
74657;DHT22;63185;45.642;13.764;2024-02-21T14:35:13;15.90;58.60
74657;DHT22;63185;45.642;13.764;2024-02-21T14:37:39;16.00;58.60
74657;DHT22;63185;45.642;13.764;2024-02-21T14:40:05;16.00;57.10
74657;DHT22;63185;45.642;13.764;2024-02-21T14:42:31;15.90;57.50
74657;DHT22;63185;45.642;13.764;2024-02-21T14:44:57;15.90;58.10
74657;DHT22;63185;45.642;13.764;2024-02-21T14:47:30;16.00;58.00
74657;DHT22;63185;45.642;13.764;2024-02-21T14:49:56;16.20;57.50
74657;DHT22;63185;45.642;13.764;2024-02-21T14:52:22;16.10;58.10
74657;DHT22;63185;45.642;13.764;2024-02-21T14:54:49;16.00;58.60
74657;DHT22;63185;45.642;13.764;2024-02-21T14:57:17;16.20;58.20
74657;DHT22;63185;45.642;13.764;2024-02-21T14:59:43;16.30;58.10
74657;DHT22;63185;45.642;13.764;2024-02-21T15:02:08;16.30;58.10
74657;DHT22;63185;45.642;13.764;2024-02-21T15:04:35;16.30;58.00
74657;DHT22;63185;45.642;13.764;2024-02-21T15:07:01;16.40;57.60
74657;DHT22;63185;45.642;13.764;2024-02-21T15:09:27;16.50;57.60
74657;DHT22;63185;45.642;13.764;2024-02-21T15:11:53;16.50;57.80
74657;DHT22;63185;45.642;13.764;2024-02-21T15:14:19;16.30;58.30
74657;DHT22;63185;45.642;13.764;2024-02-21T15:16:49;16.30;59.20